Time;durP1;ratioP1;P1;durP2;ratioP2;P2;SDS_P1;SDS_P2;PMS_P1;PMS_P2;Temp;Humidity;BMP_temperature;BMP_pressure;BME280_temperature;BME280_humidity;BME280_pressure;Samples;Min_cycle;Max_cycle;Signal;HPM_P1;HPM_P2
2022/01/05 08:31:42;;;;;;;4.13;1.40;;;13.90;78.40;;;;;;2282776;62;30022;-67
2022/01/05 08:34:10;;;;;;;4.78;1.50;;;13.90;76.90;;;;;;2274795;62;30388;-66
2022/01/05 08:36:42;;;;;;;4.65;1.17;;;13.90;78.00;;;;;;2273692;62;34654;-66
2022/01/05 08:39:16;;;;;;;3.13;1.30;;;13.90;78.90;;;;;;2272881;62;30845;-66
2022/01/05 08:41:42;;;;;;;3.28;1.15;;;13.90;79.60;;;;;;2274381;62;30210;-67
2022/01/05 08:44:07;;;;;;;1.60;1.17;;;13.90;80.10;;;;;;2274378;62;30270;-67
2022/01/05 08:46:33;;;;;;;3.05;1.40;;;13.90;80.50;;;;;;2274851;62;30227;-66
2022/01/05 08:48:59;;;;;;;2.65;1.30;;;14.00;80.80;;;;;;2270213;62;30161;-66
2022/01/05 08:51:25;;;;;;;2.28;1.25;;;14.00;81.00;;;;;;2270431;62;30028;-66
2022/01/05 08:53:51;;;;;;;3.17;1.25;;;14.00;81.00;;;;;;2266401;62;30273;-66
2022/01/05 08:56:23;;;;;;;1.50;1.05;;;14.00;81.00;;;;;;2266590;62;30190;-66
2022/01/05 08:58:50;;;;;;;2.95;1.20;;;14.00;81.00;;;;;;2266176;62;31524;-67
2022/01/05 09:01:16;;;;;;;4.35;1.40;;;14.00;81.20;;;;;;2266406;62;30520;-67
2022/01/05 09:03:42;;;;;;;2.25;1.23;;;14.10;81.20;;;;;;2259176;62;30174;-66
2022/01/05 09:06:12;;;;;;;3.63;1.45;;;14.10;81.10;;;;;;2266217;62;30217;-67
2022/01/05 09:08:38;;;;;;;1.50;1.13;;;14.10;81.00;;;;;;2266355;62;31944;-66
2022/01/05 09:11:08;;;;;;;3.05;1.13;;;14.10;80.90;;;;;;2266306;62;30084;-68
2022/01/05 09:13:34;;;;;;;3.47;1.48;;;14.20;80.90;;;;;;2266034;62;30013;-68
2022/01/05 09:16:00;;;;;;;2.53;1.35;;;14.20;80.80;;;;;;2269208;62;30352;-68
2022/01/05 09:18:26;;;;;;;2.25;1.15;;;14.20;80.60;;;;;;2274404;62;30361;-69
2022/01/05 09:20:52;;;;;;;2.88;1.27;;;14.30;80.50;;;;;;2274206;62;30297;-68
2022/01/05 09:23:18;;;;;;;2.40;1.17;;;14.30;80.30;;;;;;2274486;62;30434;-68
2022/01/05 09:25:44;;;;;;;2.13;1.20;;;14.30;80.10;;;;;;2274477;62;30036;-68
2022/01/05 09:28:10;;;;;;;4.50;1.60;;;14.30;80.20;;;;;;2274190;62;30842;-67
2022/01/05 09:30:40;;;;;;;3.10;1.42;;;14.30;80.00;;;;;;2274310;62;30172;-68
2022/01/05 09:33:07;;;;;;;2.03;1.20;;;14.30;79.90;;;;;;2274358;62;30257;-67
2022/01/05 09:35:35;;;;;;;3.03;1.45;;;14.30;79.80;;;;;;2274250;62;30341;-67
2022/01/05 09:43:12;;;;;;;3.28;1.60;;;14.40;79.50;;;;;;2261442;62;30407;-67
2022/01/05 09:45:41;;;;;;;3.78;1.33;;;14.40;79.40;;;;;;2268619;62;30260;-67
2022/01/05 09:48:31;;;;;;;2.92;1.60;;;14.40;79.30;;;;;;2255825;62;30309;-68
2022/01/05 09:51:02;;;;;;;4.25;1.63;;;14.40;78.90;;;;;;2261726;62;30284;-69
2022/01/05 09:53:29;;;;;;;4.85;1.65;;;14.40;79.00;;;;;;2261694;62;30861;-69
2022/01/05 09:55:55;;;;;;;5.15;2.08;;;14.40;79.00;;;;;;2261416;62;30278;-67
2022/01/05 09:58:22;;;;;;;3.63;1.40;;;14.30;79.00;;;;;;2261278;62;30129;-67
2022/01/05 10:00:51;;;;;;;5.07;1.80;;;14.30;79.00;;;;;;2258054;62;30282;-68
2022/01/05 10:03:17;;;;;;;2.85;1.58;;;14.30;78.90;;;;;;2261221;62;30047;-68
2022/01/05 10:05:43;;;;;;;3.33;1.60;;;14.30;79.00;;;;;;2261305;62;30296;-69
2022/01/05 10:08:10;;;;;;;3.38;1.55;;;14.40;78.90;;;;;;2268259;62;30187;-69
2022/01/05 10:10:36;;;;;;;4.13;1.60;;;14.30;78.80;;;;;;2258750;62;30191;-69
2022/01/05 10:13:02;;;;;;;3.38;1.60;;;14.40;78.70;;;;;;2261174;62;30313;-69
2022/01/05 10:15:28;;;;;;;4.07;1.50;;;14.40;78.60;;;;;;2253448;63;30355;-68
2022/01/05 10:18:15;;;;;;;4.25;1.42;;;14.40;78.60;;;;;;2260481;63;30597;-69
2022/01/05 10:21:14;;;;;;;4.50;1.50;;;14.40;77.90;;;;;;2252454;63;30361;-69
2022/01/05 10:23:42;;;;;;;4.45;1.75;;;14.40;78.00;;;;;;2260343;63;30143;-69
2022/01/05 10:26:32;;;;;;;3.60;1.63;;;14.40;78.50;;;;;;2253068;63;30360;-69
2022/01/05 10:29:07;;;;;;;3.83;1.98;;;14.40;78.20;;;;;;2260307;63;30844;-69
2022/01/05 10:31:38;;;;;;;3.92;1.58;;;14.40;78.20;;;;;;2239642;63;30508;-68
2022/01/05 10:34:18;;;;;;;4.60;1.90;;;14.50;78.90;;;;;;2253374;62;30319;-68
2022/01/05 10:36:49;;;;;;;4.30;1.77;;;14.50;77.90;;;;;;2253151;63;30233;-69
2022/01/05 10:39:18;;;;;;;5.20;1.50;;;14.50;78.00;;;;;;2260524;63;30468;-69
2022/01/05 10:41:47;;;;;;;6.30;1.85;;;14.50;78.00;;;;;;2246963;63;30388;-68
2022/01/05 10:44:18;;;;;;;4.00;1.90;;;14.50;78.00;;;;;;2252908;63;30320;-70
2022/01/05 10:46:46;;;;;;;4.22;1.73;;;14.40;77.90;;;;;;2246406;63;30256;-69
2022/01/05 10:49:38;;;;;;;4.63;1.77;;;14.40;78.20;;;;;;2246593;63;31081;-67
2022/01/05 10:52:26;;;;;;;4.88;1.60;;;14.40;78.00;;;;;;2254278;63;32224;-67
2022/01/05 10:54:53;;;;;;;3.30;1.52;;;14.40;77.80;;;;;;2259768;63;30272;-71
2022/01/05 10:57:19;;;;;;;4.80;1.90;;;14.50;78.20;;;;;;2246126;63;30397;-68
2022/01/05 10:59:46;;;;;;;5.15;1.65;;;14.50;78.00;;;;;;2259655;63;30264;-68
2022/01/05 11:02:30;;;;;;;3.47;1.80;;;14.50;78.80;;;;;;2246518;63;30680;-69
2022/01/05 11:05:16;;;;;;;2.88;1.65;;;14.50;77.80;;;;;;2260102;63;30275;-68
2022/01/05 11:07:46;;;;;;;5.07;1.75;;;14.40;77.80;;;;;;2260489;63;30318;-74
2022/01/05 11:10:16;;;;;;;6.10;2.13;;;14.50;78.30;;;;;;2253451;63;30259;-74
2022/01/05 11:12:52;;;;;;;7.00;2.05;;;14.50;78.20;;;;;;2260127;63;30112;-73
2022/01/05 11:15:17;;;;;;;5.72;1.75;;;14.60;78.00;;;;;;2255056;63;30216;-74
2022/01/05 11:18:16;;;;;;;4.47;1.63;;;14.60;77.90;;;;;;2260217;63;30223;-74
2022/01/05 11:20:55;;;;;;;7.47;2.72;;;14.60;77.50;;;;;;2251787;63;31366;-73
2022/01/05 11:23:24;;;;;;;4.40;2.15;;;14.70;77.60;;;;;;2259142;63;30604;-74
2022/01/05 11:25:50;;;;;;;5.00;1.85;;;14.60;77.70;;;;;;2260039;63;30424;-73
2022/01/05 11:28:17;;;;;;;7.25;2.08;;;14.60;77.70;;;;;;2253190;63;30130;-72
2022/01/05 11:30:44;;;;;;;6.10;2.17;;;14.70;77.70;;;;;;2259424;62;30361;-73
2022/01/05 11:33:10;;;;;;;6.22;1.80;;;14.70;77.70;;;;;;2252819;63;30156;-73
2022/01/05 11:35:36;;;;;;;3.67;1.60;;;14.70;77.60;;;;;;2260122;63;30355;-67
2022/01/05 11:38:05;;;;;;;5.07;1.90;;;14.70;77.50;;;;;;2257942;62;30396;-68
2022/01/05 11:40:31;;;;;;;6.38;1.80;;;14.80;77.40;;;;;;2256024;62;30863;-67
2022/01/05 11:43:08;;;;;;;7.47;2.30;;;14.80;77.40;;;;;;2267444;62;30218;-67
2022/01/05 11:45:45;;;;;;;4.85;2.28;;;14.70;77.30;;;;;;2254265;62;30526;-68
2022/01/05 11:48:21;;;;;;;4.47;1.90;;;14.70;77.50;;;;;;2260955;62;30309;-67
2022/01/05 11:51:02;;;;;;;4.97;2.28;;;14.60;77.50;;;;;;2267757;62;31075;-67
2022/01/05 11:53:31;;;;;;;6.10;2.30;;;14.60;77.50;;;;;;2268189;62;31831;-67
2022/01/05 11:56:01;;;;;;;7.25;2.42;;;14.60;77.70;;;;;;2264131;62;30411;-67
2022/01/05 11:58:32;;;;;;;4.85;2.00;;;14.50;77.60;;;;;;2260215;63;30259;-67
2022/01/05 12:01:13;;;;;;;6.35;2.40;;;14.60;77.70;;;;;;2259924;63;30064;-67
2022/01/05 12:04:09;;;;;;;7.03;2.20;;;14.60;77.50;;;;;;2266975;62;30689;-67
2022/01/05 12:06:44;;;;;;;5.03;2.00;;;14.60;77.60;;;;;;2264825;62;30215;-69
2022/01/05 12:09:21;;;;;;;5.43;2.33;;;14.60;77.70;;;;;;2268008;62;30170;-68
2022/01/05 12:11:47;;;;;;;7.07;2.10;;;14.70;77.50;;;;;;2260780;62;30134;-68
2022/01/05 12:14:27;;;;;;;7.80;2.50;;;14.70;77.50;;;;;;2267976;62;30567;-68
2022/01/05 12:17:05;;;;;;;6.05;2.05;;;14.80;77.40;;;;;;2266933;62;30166;-68
2022/01/05 12:19:34;;;;;;;5.68;2.10;;;14.90;77.30;;;;;;2259770;63;30071;-67
2022/01/05 12:22:15;;;;;;;5.88;2.30;;;14.90;77.30;;;;;;2259484;63;31258;-67
2022/01/05 12:24:53;;;;;;;5.18;2.05;;;14.90;77.20;;;;;;2246759;63;30450;-67
2022/01/05 12:27:20;;;;;;;8.15;2.22;;;14.80;77.10;;;;;;2259690;63;30038;-68
2022/01/05 12:29:46;;;;;;;5.80;2.13;;;14.80;77.30;;;;;;2252338;63;30120;-67
2022/01/05 12:32:30;;;;;;;5.05;1.70;;;14.90;77.30;;;;;;2254807;62;30123;-67
2022/01/05 12:35:19;;;;;;;7.95;2.00;;;14.80;77.00;;;;;;2267929;62;30490;-67
2022/01/05 12:37:58;;;;;;;10.02;2.20;;;14.80;77.20;;;;;;2258269;62;30074;-68
2022/01/05 12:40:31;;;;;;;6.93;2.03;;;14.80;77.30;;;;;;2261348;62;30344;-67
2022/01/05 12:43:09;;;;;;;5.05;1.92;;;14.80;77.20;;;;;;2253529;62;30238;-67
2022/01/05 12:46:07;;;;;;;5.22;2.38;;;14.80;77.10;;;;;;2267734;62;30086;-67
2022/01/05 12:48:36;;;;;;;6.20;2.22;;;14.70;76.90;;;;;;2267657;62;30398;-67
2022/01/05 12:51:12;;;;;;;6.25;1.85;;;14.70;77.20;;;;;;2267160;62;30180;-68
2022/01/05 12:53:55;;;;;;;4.78;1.65;;;14.70;77.10;;;;;;2267345;62;30849;-67
2022/01/05 12:56:23;;;;;;;4.15;1.90;;;14.70;77.00;;;;;;2267649;62;30864;-67
2022/01/05 12:58:51;;;;;;;2.90;1.77;;;14.70;77.20;;;;;;2260204;62;30159;-67
2022/01/05 13:01:21;;;;;;;4.78;1.90;;;14.70;77.20;;;;;;2260252;62;30490;-68
2022/01/05 13:03:54;;;;;;;3.97;2.10;;;14.70;77.10;;;;;;2267595;62;30155;-67
2022/01/05 13:06:23;;;;;;;5.32;1.83;;;14.70;77.10;;;;;;2260339;62;30484;-67
2022/01/05 13:08:56;;;;;;;5.63;1.83;;;14.70;77.20;;;;;;2260579;62;30242;-67
2022/01/05 13:11:42;;;;;;;4.72;1.98;;;14.70;77.20;;;;;;2253908;62;30223;-67
2022/01/05 13:14:20;;;;;;;4.05;2.00;;;14.70;77.00;;;;;;2260492;62;31377;-67
2022/01/05 13:16:56;;;;;;;5.43;1.80;;;14.70;77.10;;;;;;2267837;62;30713;-67
2022/01/05 13:19:43;;;;;;;4.53;2.08;;;14.70;76.90;;;;;;2268874;62;30159;-67
2022/01/05 13:22:16;;;;;;;3.97;1.98;;;14.70;76.90;;;;;;2269072;62;30243;-67
2022/01/05 13:24:52;;;;;;;3.55;1.88;;;14.70;77.00;;;;;;2269102;62;30322;-68
2022/01/05 13:27:22;;;;;;;7.78;1.80;;;14.60;77.00;;;;;;2268839;62;30177;-68
2022/01/05 13:29:48;;;;;;;5.93;1.67;;;14.60;77.20;;;;;;2261794;62;30134;-67
2022/01/05 13:32:16;;;;;;;4.63;1.73;;;14.50;77.30;;;;;;2261835;62;30240;-67
2022/01/05 13:34:49;;;;;;;4.88;2.20;;;14.50;77.40;;;;;;2268824;62;31231;-67
2022/01/05 13:37:30;;;;;;;3.55;1.77;;;14.50;77.40;;;;;;2261944;62;30218;-67
2022/01/05 13:40:05;;;;;;;5.20;2.40;;;14.50;77.30;;;;;;2255177;62;30320;-67
2022/01/05 13:42:35;;;;;;;3.70;1.70;;;14.50;77.50;;;;;;2262154;62;30318;-67
2022/01/05 13:45:02;;;;;;;5.00;2.10;;;14.50;77.60;;;;;;2268958;62;30216;-68
2022/01/05 13:47:28;;;;;;;5.20;2.13;;;14.40;77.50;;;;;;2261536;62;30887;-67
2022/01/05 13:50:12;;;;;;;4.93;1.92;;;14.40;77.60;;;;;;2261771;62;30178;-67
2022/01/05 13:52:38;;;;;;;4.82;1.92;;;14.40;77.60;;;;;;2269211;62;30248;-67
2022/01/05 13:55:06;;;;;;;3.25;1.90;;;14.50;77.60;;;;;;2268942;62;30226;-67
2022/01/05 13:57:34;;;;;;;3.67;1.80;;;14.50;77.50;;;;;;2255023;62;30740;-67
2022/01/05 14:00:10;;;;;;;5.07;1.98;;;14.50;77.40;;;;;;2269047;62;29977;-67
2022/01/05 14:02:37;;;;;;;4.13;1.65;;;14.60;77.30;;;;;;2268822;62;30307;-67
2022/01/05 14:05:03;;;;;;;2.55;1.40;;;14.50;77.30;;;;;;2269036;62;32478;-67
2022/01/05 14:07:29;;;;;;;4.60;1.80;;;14.50;77.40;;;;;;2268981;62;30779;-67
2022/01/05 14:10:09;;;;;;;5.85;2.20;;;14.50;77.40;;;;;;2268631;62;30355;-67
2022/01/05 14:12:44;;;;;;;4.18;1.67;;;14.40;77.50;;;;;;2261514;62;31196;-67
2022/01/05 14:15:13;;;;;;;3.63;1.67;;;14.40;77.50;;;;;;2268720;62;30221;-67
2022/01/05 14:17:39;;;;;;;4.68;1.92;;;14.40;77.50;;;;;;2261615;62;30148;-67
2022/01/05 14:20:24;;;;;;;5.63;2.08;;;14.40;77.50;;;;;;2261379;62;30310;-67
2022/01/05 14:23:03;;;;;;;4.53;1.77;;;14.40;77.50;;;;;;2268647;62;30220;-67
2022/01/05 14:25:40;;;;;;;4.40;1.77;;;14.40;77.50;;;;;;2261589;62;30414;-67
2022/01/05 14:28:28;;;;;;;4.88;1.83;;;14.40;77.50;;;;;;2255076;62;30332;-67
2022/01/05 14:31:03;;;;;;;4.65;1.75;;;14.40;77.50;;;;;;2261242;62;30281;-67
2022/01/05 14:33:40;;;;;;;4.85;1.63;;;14.40;77.60;;;;;;2255272;62;30483;-67
2022/01/05 14:36:17;;;;;;;5.13;1.95;;;14.40;77.50;;;;;;2254908;62;30345;-67
2022/01/05 14:39:04;;;;;;;4.78;1.88;;;14.50;77.40;;;;;;2255303;62;30693;-67
2022/01/05 14:41:37;;;;;;;4.95;1.95;;;14.50;77.20;;;;;;2261970;62;30295;-67
2022/01/05 14:44:05;;;;;;;4.57;1.83;;;14.50;77.10;;;;;;2261277;62;30139;-67
2022/01/05 14:46:31;;;;;;;5.07;1.73;;;14.50;77.30;;;;;;2261183;62;30294;-67
2022/01/05 14:48:58;;;;;;;4.35;1.60;;;14.50;77.30;;;;;;2268792;62;30806;-67
2022/01/05 14:51:26;;;;;;;4.35;1.45;;;14.50;77.40;;;;;;2268417;62;30167;-66
2022/01/05 14:53:51;;;;;;;3.53;1.83;;;14.50;77.40;;;;;;2268678;62;30208;-66
2022/01/05 14:56:20;;;;;;;3.35;1.52;;;14.50;77.50;;;;;;2268301;62;31711;-66
2022/01/05 14:58:52;;;;;;;5.93;2.13;;;14.50;77.50;;;;;;2261259;62;31270;-66
2022/01/05 15:01:18;;;;;;;4.18;1.90;;;14.40;77.50;;;;;;2268635;62;30219;-66
2022/01/05 15:03:44;;;;;;;5.25;2.05;;;14.40;77.40;;;;;;2268556;62;30258;-66
2022/01/05 15:06:13;;;;;;;3.45;1.95;;;14.40;77.50;;;;;;2268250;62;30704;-66
2022/01/05 15:08:41;;;;;;;4.70;2.00;;;14.30;77.50;;;;;;2268513;62;30377;-66
2022/01/05 15:11:07;;;;;;;5.90;1.90;;;14.30;77.70;;;;;;2267825;62;30326;-66
2022/01/05 15:13:33;;;;;;;4.03;2.20;;;14.30;77.70;;;;;;2261343;62;30043;-66
2022/01/05 15:15:59;;;;;;;5.13;2.10;;;14.30;77.80;;;;;;2268557;62;30059;-66
2022/01/05 15:18:25;;;;;;;4.43;2.00;;;14.30;77.90;;;;;;2261144;62;30598;-66
2022/01/05 15:20:52;;;;;;;3.25;1.55;;;14.30;77.80;;;;;;2261034;62;30260;-66
2022/01/05 15:23:21;;;;;;;4.85;1.88;;;14.30;77.80;;;;;;2268523;62;30345;-66
2022/01/05 15:25:47;;;;;;;4.82;1.90;;;14.30;77.80;;;;;;2268508;62;31552;-66
2022/01/05 15:28:13;;;;;;;6.03;2.28;;;14.30;77.80;;;;;;2268434;62;31240;-66
2022/01/05 15:30:39;;;;;;;4.38;1.88;;;14.30;77.80;;;;;;2268413;62;30086;-66
2022/01/05 15:33:05;;;;;;;4.78;1.60;;;14.20;77.90;;;;;;2268426;62;30320;-66
2022/01/05 15:35:31;;;;;;;4.43;1.80;;;14.20;78.00;;;;;;2268228;62;31000;-66
2022/01/05 15:37:57;;;;;;;5.97;2.22;;;14.20;78.10;;;;;;2268356;62;30568;-66
2022/01/05 15:40:23;;;;;;;5.10;1.77;;;14.20;78.10;;;;;;2267921;62;30113;-66
2022/01/05 15:42:50;;;;;;;4.43;1.83;;;14.20;78.00;;;;;;2261284;62;30316;-66
2022/01/05 15:45:19;;;;;;;4.68;1.83;;;14.20;78.00;;;;;;2268344;62;30223;-66
2022/01/05 15:47:45;;;;;;;4.82;1.80;;;14.20;78.00;;;;;;2267947;62;30432;-66
2022/01/05 15:50:11;;;;;;;4.50;1.70;;;14.20;77.90;;;;;;2268250;62;30219;-66
2022/01/05 15:52:38;;;;;;;4.00;2.00;;;14.20;78.60;;;;;;2268315;62;30007;-66
2022/01/05 15:55:08;;;;;;;3.53;1.95;;;14.20;78.00;;;;;;2268096;62;30173;-66
2022/01/05 16:02:51;;;;;;;2.78;1.55;;;14.10;78.20;;;;;;2268343;62;30131;-66
2022/01/05 16:05:17;;;;;;;2.88;2.08;;;14.10;78.20;;;;;;2268274;62;31334;-66
2022/01/05 16:07:43;;;;;;;4.45;2.10;;;14.10;78.10;;;;;;2267799;62;30869;-66
2022/01/05 16:10:09;;;;;;;6.07;2.10;;;14.20;78.20;;;;;;2268192;62;30111;-66
2022/01/05 16:12:38;;;;;;;6.57;2.15;;;14.20;78.10;;;;;;2267743;62;30450;-66
2022/01/05 16:15:05;;;;;;;6.38;2.03;;;14.10;78.00;;;;;;2267910;62;30163;-66
2022/01/05 16:17:31;;;;;;;5.32;2.00;;;14.10;78.10;;;;;;2268125;62;32060;-66
2022/01/05 16:19:57;;;;;;;4.18;1.98;;;14.10;78.20;;;;;;2267970;62;30696;-66
2022/01/05 16:22:23;;;;;;;4.47;1.70;;;14.10;78.30;;;;;;2260572;62;30267;-66
2022/01/05 16:24:48;;;;;;;5.80;1.90;;;14.10;78.30;;;;;;2268130;62;30170;-66
2022/01/05 16:27:18;;;;;;;5.32;2.00;;;14.10;78.30;;;;;;2260741;62;30889;-66
2022/01/05 16:29:44;;;;;;;4.95;2.17;;;14.10;78.30;;;;;;2260493;62;30301;-66
2022/01/05 16:32:10;;;;;;;5.28;2.20;;;14.10;78.20;;;;;;2267794;62;30159;-67
2022/01/05 16:34:37;;;;;;;8.90;2.60;;;14.20;78.20;;;;;;2260664;62;30201;-66
2022/01/05 16:37:08;;;;;;;5.13;1.83;;;14.20;78.20;;;;;;2267576;62;30310;-66
2022/01/05 16:39:33;;;;;;;9.57;2.80;;;14.30;78.10;;;;;;2267876;62;30176;-66
2022/01/05 16:42:01;;;;;;;6.28;1.90;;;14.30;78.00;;;;;;2260736;62;30583;-66
2022/01/05 16:44:29;;;;;;;5.20;1.95;;;14.40;78.00;;;;;;2260701;62;30214;-66
2022/01/05 16:46:56;;;;;;;7.60;2.30;;;14.40;77.90;;;;;;2267860;62;30707;-70
2022/01/05 16:49:22;;;;;;;6.50;2.20;;;14.50;78.30;;;;;;2267507;62;30189;-70
2022/01/05 16:51:48;;;;;;;4.88;2.17;;;14.70;78.10;;;;;;2268034;62;30362;-68
2022/01/05 16:54:16;;;;;;;4.38;2.15;;;14.80;77.70;;;;;;2269386;62;30243;-69
2022/01/05 17:01:53;;;;;;;5.25;1.88;;;15.10;77.10;;;;;;2269380;62;30183;-71
2022/01/05 17:04:19;;;;;;;3.20;1.55;;;15.30;76.90;;;;;;2266353;62;31007;-70
2022/01/05 17:06:44;;;;;;;5.10;1.98;;;15.40;76.70;;;;;;2267747;62;30187;-71
2022/01/05 17:09:10;;;;;;;6.10;2.00;;;15.50;76.60;;;;;;2269143;62;30098;-70
2022/01/05 17:11:41;;;;;;;3.70;1.80;;;15.50;76.40;;;;;;2268841;62;29874;-71
2022/01/05 17:14:08;;;;;;;6.18;2.03;;;15.60;76.30;;;;;;2261878;62;30302;-71
2022/01/05 17:16:34;;;;;;;5.18;2.20;;;15.70;76.30;;;;;;2261800;62;30180;-72
2022/01/05 17:19:00;;;;;;;5.93;2.20;;;15.70;76.00;;;;;;2267690;62;30105;-70
2022/01/05 17:21:26;;;;;;;4.10;2.10;;;15.80;75.90;;;;;;2266550;62;30332;-69
2022/01/05 17:23:52;;;;;;;4.15;1.92;;;15.80;75.80;;;;;;2267525;62;32107;-70
2022/01/05 17:26:18;;;;;;;6.00;2.20;;;15.90;75.70;;;;;;2267124;62;30581;-69
2022/01/05 17:28:44;;;;;;;4.47;1.90;;;15.80;75.60;;;;;;2259955;62;30404;-69
2022/01/05 17:31:10;;;;;;;4.75;2.15;;;15.80;75.60;;;;;;2266384;62;30433;-69
2022/01/05 17:33:36;;;;;;;6.22;2.35;;;15.80;75.50;;;;;;2267410;62;30185;-70
2022/01/05 17:36:02;;;;;;;4.18;2.30;;;15.80;75.60;;;;;;2259886;62;31321;-70
2022/01/05 17:38:28;;;;;;;4.47;2.13;;;15.90;75.60;;;;;;2267880;62;30296;-70
2022/01/05 17:40:54;;;;;;;3.17;2.00;;;15.80;75.50;;;;;;2253593;62;30041;-70
2022/01/05 17:43:20;;;;;;;4.32;2.05;;;15.90;76.20;;;;;;2267765;62;30739;-70
2022/01/05 17:45:46;;;;;;;4.07;2.00;;;15.90;75.50;;;;;;2260333;62;30853;-69
2022/01/05 17:48:13;;;;;;;3.55;2.10;;;15.90;75.50;;;;;;2267978;62;30850;-70
2022/01/05 17:50:39;;;;;;;3.78;1.60;;;15.90;75.50;;;;;;2267542;62;30413;-69
2022/01/05 17:53:05;;;;;;;4.78;2.08;;;15.90;75.40;;;;;;2267202;62;30154;-69
2022/01/05 17:55:31;;;;;;;3.83;1.70;;;15.90;75.40;;;;;;2267646;62;30491;-68
2022/01/05 17:57:57;;;;;;;4.50;2.20;;;15.90;75.40;;;;;;2260302;62;30453;-69
2022/01/05 18:00:23;;;;;;;4.43;2.00;;;15.90;75.30;;;;;;2267575;62;30424;-69
2022/01/05 18:02:49;;;;;;;3.88;1.80;;;15.90;75.30;;;;;;2267296;62;31543;-69
2022/01/05 18:05:16;;;;;;;7.28;2.25;;;15.90;75.30;;;;;;2267508;62;30570;-69
2022/01/05 18:07:42;;;;;;;5.03;2.05;;;15.90;75.20;;;;;;2253534;62;30270;-70
2022/01/05 18:10:08;;;;;;;4.50;1.90;;;15.90;75.20;;;;;;2267550;62;30425;-69
2022/01/05 18:12:34;;;;;;;3.60;1.95;;;15.90;75.20;;;;;;2267610;62;30968;-69
2022/01/05 18:15:00;;;;;;;4.13;2.22;;;15.90;75.10;;;;;;2266897;62;30221;-69
2022/01/05 18:17:26;;;;;;;3.97;1.88;;;15.90;75.10;;;;;;2267402;62;30200;-69
2022/01/05 18:19:52;;;;;;;6.68;2.10;;;15.90;75.80;;;;;;2259939;62;30382;-69
2022/01/05 18:22:18;;;;;;;4.18;1.90;;;15.90;75.10;;;;;;2267339;62;31842;-70
2022/01/05 18:24:44;;;;;;;6.78;2.17;;;15.90;75.10;;;;;;2260130;62;31105;-69
2022/01/05 18:27:10;;;;;;;4.32;1.80;;;15.90;75.10;;;;;;2260079;62;30152;-69
2022/01/05 18:29:36;;;;;;;2.88;1.60;;;15.90;75.20;;;;;;2259792;62;30438;-68
2022/01/05 18:32:02;;;;;;;5.95;2.38;;;15.80;75.10;;;;;;2267131;62;30783;-70
2022/01/05 18:34:30;;;;;;;3.60;1.75;;;15.80;75.40;;;;;;2259614;62;30441;-68
2022/01/05 18:36:59;;;;;;;4.20;1.92;;;15.80;75.60;;;;;;2266411;62;30683;-70
2022/01/05 18:39:25;;;;;;;3.65;1.88;;;15.90;75.70;;;;;;2267372;62;30745;-70
2022/01/05 18:41:51;;;;;;;2.90;1.65;;;16.10;75.50;;;;;;2267282;62;30786;-69
2022/01/05 18:44:17;;;;;;;3.35;1.80;;;16.30;75.40;;;;;;2266424;62;30547;-69
2022/01/05 18:46:43;;;;;;;2.65;1.50;;;16.30;75.20;;;;;;2267236;62;30119;-71
2022/01/05 18:49:13;;;;;;;3.42;1.70;;;16.40;75.10;;;;;;2266363;62;30416;-71
2022/01/05 18:51:39;;;;;;;3.53;1.83;;;16.50;75.00;;;;;;2267317;62;31042;-69
2022/01/05 18:54:05;;;;;;;3.42;1.60;;;16.50;75.00;;;;;;2266292;62;30347;-70
2022/01/05 18:56:31;;;;;;;3.50;1.60;;;16.60;74.80;;;;;;2259784;62;30337;-72
2022/01/05 18:58:58;;;;;;;4.10;1.80;;;16.70;74.70;;;;;;2260083;62;30199;-70
2022/01/05 19:01:24;;;;;;;2.80;1.70;;;16.70;74.60;;;;;;2267478;62;30858;-71
2022/01/05 19:03:50;;;;;;;4.57;1.90;;;16.80;74.60;;;;;;2267219;62;30739;-71
2022/01/05 19:06:16;;;;;;;3.13;1.60;;;16.80;74.40;;;;;;2267296;62;30360;-69
2022/01/05 19:08:42;;;;;;;3.03;1.80;;;16.80;74.20;;;;;;2253288;62;30268;-70
2022/01/05 19:11:08;;;;;;;5.35;1.92;;;16.90;74.10;;;;;;2266880;62;30988;-69
2022/01/05 19:13:34;;;;;;;3.42;1.90;;;16.90;74.00;;;;;;2261513;62;30618;-69
2022/01/05 19:16:00;;;;;;;3.08;1.55;;;16.90;74.00;;;;;;2258493;62;30065;-68
2022/01/05 19:18:28;;;;;;;3.40;1.50;;;16.90;74.00;;;;;;2251590;63;30488;-69
2022/01/05 19:20:54;;;;;;;3.30;1.80;;;17.00;74.10;;;;;;2258689;63;30553;-68
2022/01/05 19:23:20;;;;;;;3.00;1.40;;;17.10;74.00;;;;;;2251573;63;31134;-68
2022/01/05 19:25:46;;;;;;;3.92;1.40;;;17.20;74.00;;;;;;2258772;63;30177;-68
2022/01/05 19:28:18;;;;;;;3.15;1.83;;;17.30;74.00;;;;;;2251595;62;30380;-69
2022/01/05 19:30:44;;;;;;;2.47;1.38;;;17.30;73.90;;;;;;2251983;63;31248;-69
2022/01/05 19:33:11;;;;;;;3.95;1.73;;;17.30;73.80;;;;;;2251542;63;30099;-68
2022/01/05 19:35:37;;;;;;;2.53;1.40;;;17.40;73.80;;;;;;2261611;62;30656;-68
2022/01/05 19:38:03;;;;;;;5.65;2.15;;;17.40;73.70;;;;;;2266607;62;30640;-69
2022/01/05 19:40:29;;;;;;;3.45;1.92;;;17.40;73.50;;;;;;2266817;62;32028;-69
2022/01/05 19:42:54;;;;;;;3.03;1.65;;;17.40;73.50;;;;;;2259666;62;30247;-68
2022/01/05 19:45:23;;;;;;;3.60;1.25;;;17.40;73.40;;;;;;2266801;62;30567;-69
2022/01/05 19:47:49;;;;;;;2.83;1.70;;;17.40;73.40;;;;;;2259640;62;30176;-68
2022/01/05 19:50:20;;;;;;;1.88;1.30;;;17.40;73.40;;;;;;2266799;62;31355;-68
2022/01/05 19:52:48;;;;;;;2.88;1.40;;;17.40;73.20;;;;;;2266511;62;30360;-68
2022/01/05 19:55:25;;;;;;;3.00;1.42;;;17.50;73.20;;;;;;2267158;62;30460;-68
2022/01/05 19:57:51;;;;;;;2.28;1.40;;;17.50;73.10;;;;;;2260469;62;30241;-69
2022/01/05 20:00:17;;;;;;;2.42;1.20;;;17.50;73.10;;;;;;2266838;62;30747;-69
2022/01/05 20:02:44;;;;;;;1.83;1.30;;;17.50;73.10;;;;;;2259773;62;30287;-69
2022/01/05 20:05:12;;;;;;;1.92;1.40;;;17.50;73.00;;;;;;2252655;62;30274;-68
2022/01/05 20:07:47;;;;;;;3.03;1.55;;;17.50;73.00;;;;;;2259185;62;30739;-68
2022/01/05 20:10:13;;;;;;;1.42;1.13;;;17.50;72.60;;;;;;2267062;62;30256;-68
2022/01/05 20:12:40;;;;;;;2.92;1.50;;;17.50;72.90;;;;;;2267017;62;31045;-69
2022/01/05 20:15:12;;;;;;;3.50;1.67;;;17.50;72.80;;;;;;2259281;62;30379;-68
2022/01/05 20:17:38;;;;;;;2.33;1.60;;;17.50;72.60;;;;;;2266791;62;30790;-69
2022/01/05 20:20:04;;;;;;;2.30;1.27;;;17.60;72.70;;;;;;2258962;62;30991;-69
2022/01/05 20:22:30;;;;;;;2.60;1.42;;;17.50;72.60;;;;;;2266145;62;30796;-67
2022/01/05 20:24:56;;;;;;;2.95;1.38;;;17.50;72.40;;;;;;2267938;62;30223;-68
2022/01/05 20:27:25;;;;;;;2.63;1.63;;;17.50;72.40;;;;;;2267525;62;30417;-70
2022/01/05 20:29:51;;;;;;;4.80;1.35;;;17.50;72.40;;;;;;2253274;62;30627;-68
2022/01/05 20:32:17;;;;;;;2.40;1.13;;;17.60;72.40;;;;;;2267982;62;30152;-68
2022/01/05 20:34:45;;;;;;;2.15;1.13;;;17.50;72.20;;;;;;2267895;62;30094;-68
2022/01/05 20:37:11;;;;;;;3.60;1.67;;;17.60;72.20;;;;;;2267713;62;30333;-67
2022/01/05 20:39:37;;;;;;;2.75;1.27;;;17.50;72.10;;;;;;2260671;62;30402;-68
2022/01/05 20:42:03;;;;;;;2.42;1.40;;;17.50;72.00;;;;;;2267505;62;30574;-68
2022/01/05 20:44:29;;;;;;;1.42;1.10;;;17.50;72.00;;;;;;2267794;62;30338;-68
2022/01/05 20:46:55;;;;;;;2.30;1.25;;;17.50;72.00;;;;;;2267516;62;30271;-68
2022/01/05 20:49:25;;;;;;;1.70;1.15;;;17.50;71.90;;;;;;2267403;62;32384;-68
2022/01/05 20:51:53;;;;;;;2.35;1.25;;;17.50;72.00;;;;;;2267887;62;30792;-67
2022/01/05 20:54:21;;;;;;;2.85;1.60;;;17.40;72.00;;;;;;2267485;62;30309;-67
2022/01/05 20:56:47;;;;;;;2.78;1.55;;;17.40;72.00;;;;;;2267443;62;30363;-67
2022/01/05 20:59:13;;;;;;;2.83;1.50;;;17.40;72.00;;;;;;2267755;62;30235;-67
2022/01/05 21:01:39;;;;;;;2.88;1.52;;;17.40;72.00;;;;;;2260401;62;30288;-67
2022/01/05 21:04:06;;;;;;;2.45;1.48;;;17.40;72.10;;;;;;2267735;62;30183;-67
2022/01/05 21:06:32;;;;;;;2.90;1.10;;;17.30;72.00;;;;;;2267767;62;30266;-68
2022/01/05 21:09:02;;;;;;;1.88;1.10;;;17.30;72.10;;;;;;2267393;62;30564;-67
2022/01/05 21:11:28;;;;;;;3.40;1.70;;;17.30;72.20;;;;;;2267208;62;31112;-68
2022/01/05 21:13:54;;;;;;;4.07;1.60;;;17.30;72.20;;;;;;2260448;62;30061;-68
2022/01/05 21:16:20;;;;;;;13.52;2.58;;;17.30;72.10;;;;;;2267772;62;30450;-74
2022/01/05 21:18:51;;;;;;;4.53;1.90;;;17.30;72.20;;;;;;2267076;62;30227;-75
2022/01/05 21:21:21;;;;;;;5.80;1.80;;;17.30;71.60;;;;;;2267255;62;31069;-67
2022/01/05 21:23:47;;;;;;;2.00;1.20;;;17.30;71.50;;;;;;2266930;62;30133;-67
2022/01/05 21:26:14;;;;;;;3.67;1.27;;;17.30;71.40;;;;;;2267622;62;30059;-66
2022/01/05 21:28:41;;;;;;;2.63;1.45;;;17.30;71.40;;;;;;2267083;62;30270;-67
2022/01/05 21:31:07;;;;;;;3.83;1.40;;;17.30;71.40;;;;;;2266799;62;30275;-67
2022/01/05 21:33:33;;;;;;;2.63;1.52;;;17.30;71.20;;;;;;2265698;62;30363;-68
2022/01/05 21:35:59;;;;;;;3.47;1.70;;;17.30;71.30;;;;;;2265248;62;30903;-67
2022/01/05 21:38:25;;;;;;;6.15;1.60;;;17.30;71.20;;;;;;2267040;62;30730;-68
2022/01/05 21:40:51;;;;;;;2.95;1.35;;;17.30;71.30;;;;;;2267088;62;30944;-67
2022/01/05 21:43:16;;;;;;;2.83;1.65;;;17.40;71.40;;;;;;2267479;62;30147;-67
2022/01/05 21:45:42;;;;;;;5.78;1.50;;;17.40;71.30;;;;;;2267399;62;30478;-68